Stena Germanica — SKPZ — position and weather

sailwx.info

Track history (hours):
 
Tides and Currents Weather Stations Pressure Air Temp Water Temp Dewpoint Dewpoint Depression Visibility Wind Speed Wind Dir Waves Ship Positions

Stena Germanica

Last reported at 2014-Sep-01 22:33 UTC. Time now 2014-Sep-01 23:30 UTC.
Position N 55°13' E 017°51'.

Length 176 m; draft 6.8 m.

Type: Ship (hazmat cat A). MMSI: 265292000.

Date/timePositionNaut miles runAvg speedWind from/ knotsBaromVisibWave heightAir tempDewpointWater temp
2014-Sep-01 22:33N 55°13' E 017°51'1414.6
2014-Sep-01 21:33N 55°05' E 018°12'1514.7
2014-Sep-01 20:34N 54°56' E 018°33'1514.6
2014-Sep-01 19:34N 54°46' E 018°50'1212.3
2014-Sep-01 18:34N 54°33' E 018°51'1211.5
2014-Sep-01 17:33N 54°33' E 018°31'0 0.4
2014-Sep-01 16:32N 54°33' E 018°30'0 0.0
2014-Sep-01 15:32N 54°33' E 018°30'0 0.0
2014-Sep-01 14:32N 54°33' E 018°30'0 0.0
2014-Sep-01 13:32N 54°33' E 018°30'0 0.0
2014-Sep-01 12:32N 54°33' E 018°30'0 0.0
2014-Sep-01 11:32N 54°33' E 018°30'0 0.0
2014-Sep-01 10:32N 54°33' E 018°30'0 0.0
2014-Sep-01 09:32N 54°33' E 018°30'0 0.0
2014-Sep-01 08:32N 54°33' E 018°30'0 0.0
2014-Sep-01 07:32N 54°33' E 018°30'2 1.7
2014-Sep-01 06:34N 54°32' E 018°33'1313.2
2014-Sep-01 05:34N 54°37' E 018°54'1414.3
2014-Sep-01 04:34N 54°50' E 018°44'1615.6
2014-Sep-01 03:34N 55°01' E 018°24'1615.7
2014-Sep-01 02:34N 55°09' E 018°01'1815.7
2014-Sep-01 01:27N 55°19' E 017°36'6015.3
2014-Aug-31 21:31N 55°52' E 016°07'1414.6
2014-Aug-31 20:34N 55°59' E 015°46'1111.0
2014-Aug-31 19:34N 56°09' E 015°37'1 0.6
2014-Aug-31 18:31N 56°10' E 015°38'4 4.1
2014-Aug-31 17:33N 56°06' E 015°35'1515.0
2014-Aug-31 16:33N 55°57' E 015°55'7216.6
2014-Aug-31 12:14N 55°17' E 017°41'1116.6
2014-Aug-31 11:32N 55°10' E 017°57'1616.5
2014-Aug-31 10:33N 55°02' E 018°21'1716.5
2014-Aug-31 09:33N 54°51' E 018°43'1515.1
2014-Aug-31 08:33N 54°38' E 018°56'1313.2
2014-Aug-31 07:33N 54°32' E 018°35'3 2.8
2014-Aug-31 06:33N 54°33' E 018°30'0 0.0
2014-Aug-31 05:33N 54°33' E 018°30'9 9.0
2014-Aug-31 04:33N 54°32' E 018°46'1414.1
2014-Aug-31 03:33N 54°46' E 018°50'1817.7
2014-Aug-31 02:33N 54°59' E 018°30'1817.7
2014-Aug-31 01:33N 55°10' E 018°05'2417.8
2014-Aug-31 00:11N 55°23' E 017°28'16 1.2
2014-Aug-30 11:27N 55°13' E 017°50'1517.0
2014-Aug-30 10:33N 55°05' E 018°13'1716.9
2014-Aug-30 09:33N 54°55' E 018°36'1717.0
2014-Aug-30 08:33N 54°42' E 018°56'1413.7
2014-Aug-30 07:33N 54°32' E 018°41'6 6.0
2014-Aug-30 06:33N 54°33' E 018°30'0 0.0
2014-Aug-30 05:33N 54°33' E 018°30'8 8.2
2014-Aug-30 04:34N 54°32' E 018°44'1212.2
2014-Aug-30 03:34N 54°43' E 018°54'1414.5
2014-Aug-30 02:34N 54°54' E 018°37'1414.3
2014-Aug-30 01:34N 55°03' E 018°18'1414.5
2014-Aug-30 00:34N 55°10' E 017°56'1414.4
2014-Aug-29 23:33N 55°18' E 017°35'1414.5
2014-Aug-29 22:34N 55°25' E 017°13'1514.4
2014-Aug-29 21:32N 55°33' E 016°50'1914.4
2014-Aug-29 20:13N 55°42' E 016°21'914.5
2014-Aug-29 19:33N 55°47' E 016°07'1414.3
2014-Aug-29 18:33N 55°54' E 015°44'1413.0
2014-Aug-29 17:31N 56°06' E 015°35'4 2.7
2014-Aug-29 16:05N 56°10' E 015°38'0 0.0
2014-Aug-29 15:11N 56°10' E 015°38'0 0.0
2014-Aug-29 07:14N 56°10' E 015°38'4 5.9
2014-Aug-29 06:33N 56°06' E 015°35'1514.2
2014-Aug-29 05:29N 55°56' E 015°55'3315.8
2014-Aug-29 03:25N 55°38' E 016°43'1315.6
2014-Aug-29 02:33N 55°31' E 017°03'1615.9
2014-Aug-29 01:33N 55°23' E 017°27'1616.0
2014-Aug-29 00:33N 55°15' E 017°52'1615.4
2014-Aug-28 23:33N 55°05' E 018°13'1616.3
2014-Aug-28 22:33N 54°56' E 018°36'1616.4
2014-Aug-28 21:34N 54°43' E 018°54'1313.2
2014-Aug-28 20:33N 54°32' E 018°44'8 7.9
2014-Aug-28 19:33N 54°33' E 018°30'0 0.0
2014-Aug-28 18:33N 54°33' E 018°30'7 7.1
2014-Aug-28 17:33N 54°32' E 018°42'1413.6
2014-Aug-28 16:33N 54°45' E 018°52'1818.0
2014-Aug-28 15:33N 54°59' E 018°32'1818.2
2014-Aug-28 14:33N 55°09' E 018°05'1818.1
2014-Aug-28 13:33N 55°19' E 017°38'8513.4
2014-Aug-28 07:11N 56°10' E 015°38'1 2.0
2014-Aug-28 06:28N 56°09' E 015°36'1513.6
2014-Aug-28 05:21N 55°58' E 015°54'2513.8
2014-Aug-28 03:34N 55°43' E 016°30'1514.9
2014-Aug-28 02:33N 55°35' E 016°53'1514.8
2014-Aug-28 01:33N 55°27' E 017°15'1515.0
2014-Aug-28 00:34N 55°18' E 017°36'1515.3
2014-Aug-27 23:34N 55°10' E 017°59'1515.4
2014-Aug-27 22:34N 55°02' E 018°22'1515.3
2014-Aug-27 21:34N 54°52' E 018°42'1515.2
2014-Aug-27 20:34N 54°40' E 018°57'1313.2
2014-Aug-27 19:33N 54°32' E 018°39'5 5.1
2014-Aug-27 18:33N 54°33' E 018°30'0 0.0
2014-Aug-27 17:33N 54°33' E 018°30'7 6.8
2014-Aug-27 16:34N 54°32' E 018°42'1313.5
2014-Aug-27 15:34N 54°45' E 018°50'1818.1
2014-Aug-27 14:34N 54°58' E 018°29'1918.2
2014-Aug-27 13:32N 55°08' E 018°01'7918.2
2014-Aug-27 09:13N 55°51' E 016°05'1217.8
2014-Aug-27 08:33N 55°58' E 015°49'1312.6
2014-Aug-27 07:33N 56°09' E 015°37'4 1.8
2014-Aug-27 05:14N 56°05' E 015°34'9316.3
2014-Aug-26 23:32N 55°13' E 017°51'1616.7
2014-Aug-26 22:33N 55°04' E 018°15'1717.1
2014-Aug-26 21:34N 54°54' E 018°38'1717.0
2014-Aug-26 20:34N 54°41' E 018°58'1514.7
2014-Aug-26 19:33N 54°32' E 018°39'5 5.0
2014-Aug-26 18:32N 54°33' E 018°30'0 0.0
2014-Aug-26 17:32N 54°33' E 018°30'6 6.3
2014-Aug-26 16:34N 54°32' E 018°41'1313.2
2014-Aug-26 15:34N 54°44' E 018°53'1817.5
2014-Aug-26 14:34N 54°56' E 018°31'1717.4
2014-Aug-26 13:33N 55°07' E 018°07'6 0.4
2014-Aug-25 21:29N 55°04' E 018°17'1414.6
2014-Aug-25 20:33N 54°56' E 018°36'1514.5
2014-Aug-25 19:33N 54°45' E 018°52'1211.9
2014-Aug-25 18:33N 54°33' E 018°50'1111.2
2014-Aug-25 17:33N 54°33' E 018°31'0 0.3
2014-Aug-25 16:29N 54°33' E 018°30'0 0.0
2014-Aug-25 15:32N 54°33' E 018°30'0 0.0
2014-Aug-25 14:32N 54°33' E 018°30'0 0.0
2014-Aug-25 13:32N 54°33' E 018°30'0 0.0
2014-Aug-25 12:32N 54°33' E 018°30'0 0.0
2014-Aug-25 11:32N 54°33' E 018°30'0 0.0
2014-Aug-25 10:32N 54°33' E 018°30'0 0.0
2014-Aug-25 09:32N 54°33' E 018°30'0 0.0
2014-Aug-25 08:32N 54°33' E 018°30'0 0.0
2014-Aug-25 07:29N 54°33' E 018°30'1 1.3
2014-Aug-25 06:33N 54°32' E 018°32'1312.8
2014-Aug-25 05:34N 54°36' E 018°53'1413.8
2014-Aug-25 04:34N 54°49' E 018°46'1515.4
2014-Aug-25 03:34N 55°00' E 018°27'1515.2
2014-Aug-25 02:33N 55°08' E 018°05'7815.4
2014-Aug-24 21:32N 55°51' E 016°10'1515.5
2014-Aug-24 20:34N 55°59' E 015°48'1212.0
2014-Aug-24 19:34N 56°09' E 015°37'1 0.7
2014-Aug-24 18:31N 56°10' E 015°38'4 4.3
2014-Aug-24 17:34N 56°06' E 015°35'1514.9
2014-Aug-24 16:34N 55°57' E 015°55'9916.5
2014-Aug-24 10:33N 55°02' E 018°21'1616.5
2014-Aug-24 09:34N 54°51' E 018°42'1615.7
2014-Aug-24 08:34N 54°38' E 018°56'1413.6
2014-Aug-24 07:33N 54°32' E 018°34'2 2.4
2014-Aug-24 06:33N 54°33' E 018°30'0 0.0
2014-Aug-24 05:33N 54°33' E 018°30'7 7.3
2014-Aug-24 04:33N 54°32' E 018°43'1313.4
2014-Aug-24 03:34N 54°45' E 018°51'1717.5
2014-Aug-24 02:34N 54°58' E 018°32'1817.6
2014-Aug-24 01:33N 55°08' E 018°06'7917.8
2014-Aug-23 21:06N 55°51' E 016°10'1017.5
2014-Aug-23 20:33N 55°56' E 015°55'1515.5
2014-Aug-23 19:34N 56°07' E 015°35'142 8.9
2014-Aug-23 03:33N 54°42' E 018°55'1514.6
2014-Aug-23 02:33N 54°53' E 018°39'1414.4
2014-Aug-23 01:33N 55°03' E 018°20'1414.4
2014-Aug-23 00:33N 55°10' E 017°59'1514.4
2014-Aug-22 23:30N 55°19' E 017°37'  
Track history (hours):
 
Tides and Currents Weather Stations Pressure Air Temp Water Temp Dewpoint Dewpoint Depression Visibility Wind Speed Wind Dir Waves Ship Positions

Stena Germanica

Last reported at 2014-Sep-01 22:33 UTC. Time now 2014-Sep-01 23:30 UTC.
Position N 55°13' E 017°51'.

Length 176 m; draft 6.8 m.

Type: Ship (hazmat cat A). MMSI: 265292000.

Date/timePositionNaut miles runAvg speedWind from/ knotsBaromVisibWave heightAir tempDewpointWater temp
2014-Sep-01 22:33N 55°13' E 017°51'1414.6
2014-Sep-01 21:33N 55°05' E 018°12'1514.7
2014-Sep-01 20:34N 54°56' E 018°33'1514.6
2014-Sep-01 19:34N 54°46' E 018°50'1212.3
2014-Sep-01 18:34N 54°33' E 018°51'1211.5
2014-Sep-01 17:33N 54°33' E 018°31'0 0.4
2014-Sep-01 16:32N 54°33' E 018°30'0 0.0
2014-Sep-01 15:32N 54°33' E 018°30'0 0.0
2014-Sep-01 14:32N 54°33' E 018°30'0 0.0
2014-Sep-01 13:32N 54°33' E 018°30'0 0.0
2014-Sep-01 12:32N 54°33' E 018°30'0 0.0
2014-Sep-01 11:32N 54°33' E 018°30'0 0.0
2014-Sep-01 10:32N 54°33' E 018°30'0 0.0
2014-Sep-01 09:32N 54°33' E 018°30'0 0.0
2014-Sep-01 08:32N 54°33' E 018°30'0 0.0
2014-Sep-01 07:32N 54°33' E 018°30'2 1.7
2014-Sep-01 06:34N 54°32' E 018°33'1313.2
2014-Sep-01 05:34N 54°37' E 018°54'1414.3
2014-Sep-01 04:34N 54°50' E 018°44'1615.6
2014-Sep-01 03:34N 55°01' E 018°24'1615.7
2014-Sep-01 02:34N 55°09' E 018°01'1815.7
2014-Sep-01 01:27N 55°19' E 017°36'6015.3
2014-Aug-31 21:31N 55°52' E 016°07'1414.6
2014-Aug-31 20:34N 55°59' E 015°46'1111.0
2014-Aug-31 19:34N 56°09' E 015°37'1 0.6
2014-Aug-31 18:31N 56°10' E 015°38'4 4.1
2014-Aug-31 17:33N 56°06' E 015°35'1515.0
2014-Aug-31 16:33N 55°57' E 015°55'7216.6
2014-Aug-31 12:14N 55°17' E 017°41'1116.6
2014-Aug-31 11:32N 55°10' E 017°57'1616.5
2014-Aug-31 10:33N 55°02' E 018°21'1716.5
2014-Aug-31 09:33N 54°51' E 018°43'1515.1
2014-Aug-31 08:33N 54°38' E 018°56'1313.2
2014-Aug-31 07:33N 54°32' E 018°35'3 2.8
2014-Aug-31 06:33N 54°33' E 018°30'0 0.0
2014-Aug-31 05:33N 54°33' E 018°30'9 9.0
2014-Aug-31 04:33N 54°32' E 018°46'1414.1
2014-Aug-31 03:33N 54°46' E 018°50'1817.7
2014-Aug-31 02:33N 54°59' E 018°30'1817.7
2014-Aug-31 01:33N 55°10' E 018°05'2417.8
2014-Aug-31 00:11N 55°23' E 017°28'16 1.2
2014-Aug-30 11:27N 55°13' E 017°50'1517.0
2014-Aug-30 10:33N 55°05' E 018°13'1716.9
2014-Aug-30 09:33N 54°55' E 018°36'1717.0
2014-Aug-30 08:33N 54°42' E 018°56'1413.7
2014-Aug-30 07:33N 54°32' E 018°41'6 6.0
2014-Aug-30 06:33N 54°33' E 018°30'0 0.0
2014-Aug-30 05:33N 54°33' E 018°30'8 8.2
2014-Aug-30 04:34N 54°32' E 018°44'1212.2
2014-Aug-30 03:34N 54°43' E 018°54'1414.5
2014-Aug-30 02:34N 54°54' E 018°37'1414.3
2014-Aug-30 01:34N 55°03' E 018°18'1414.5
2014-Aug-30 00:34N 55°10' E 017°56'1414.4
2014-Aug-29 23:33N 55°18' E 017°35'1414.5
2014-Aug-29 22:34N 55°25' E 017°13'1514.4
2014-Aug-29 21:32N 55°33' E 016°50'1914.4
2014-Aug-29 20:13N 55°42' E 016°21'914.5
2014-Aug-29 19:33N 55°47' E 016°07'1414.3
2014-Aug-29 18:33N 55°54' E 015°44'1413.0
2014-Aug-29 17:31N 56°06' E 015°35'4 2.7
2014-Aug-29 16:05N 56°10' E 015°38'0 0.0
2014-Aug-29 15:11N 56°10' E 015°38'0 0.0
2014-Aug-29 07:14N 56°10' E 015°38'4 5.9
2014-Aug-29 06:33N 56°06' E 015°35'1514.2
2014-Aug-29 05:29N 55°56' E 015°55'3315.8
2014-Aug-29 03:25N 55°38' E 016°43'1315.6
2014-Aug-29 02:33N 55°31' E 017°03'1615.9
2014-Aug-29 01:33N 55°23' E 017°27'1616.0
2014-Aug-29 00:33N 55°15' E 017°52'1615.4
2014-Aug-28 23:33N 55°05' E 018°13'1616.3
2014-Aug-28 22:33N 54°56' E 018°36'1616.4
2014-Aug-28 21:34N 54°43' E 018°54'1313.2
2014-Aug-28 20:33N 54°32' E 018°44'8 7.9
2014-Aug-28 19:33N 54°33' E 018°30'0 0.0
2014-Aug-28 18:33N 54°33' E 018°30'7 7.1
2014-Aug-28 17:33N 54°32' E 018°42'1413.6
2014-Aug-28 16:33N 54°45' E 018°52'1818.0
2014-Aug-28 15:33N 54°59' E 018°32'1818.2
2014-Aug-28 14:33N 55°09' E 018°05'1818.1
2014-Aug-28 13:33N 55°19' E 017°38'8513.4
2014-Aug-28 07:11N 56°10' E 015°38'1 2.0
2014-Aug-28 06:28N 56°09' E 015°36'1513.6
2014-Aug-28 05:21N 55°58' E 015°54'2513.8
2014-Aug-28 03:34N 55°43' E 016°30'1514.9
2014-Aug-28 02:33N 55°35' E 016°53'1514.8
2014-Aug-28 01:33N 55°27' E 017°15'1515.0
2014-Aug-28 00:34N 55°18' E 017°36'1515.3
2014-Aug-27 23:34N 55°10' E 017°59'1515.4
2014-Aug-27 22:34N 55°02' E 018°22'1515.3
2014-Aug-27 21:34N 54°52' E 018°42'1515.2
2014-Aug-27 20:34N 54°40' E 018°57'1313.2
2014-Aug-27 19:33N 54°32' E 018°39'5 5.1
2014-Aug-27 18:33N 54°33' E 018°30'0 0.0
2014-Aug-27 17:33N 54°33' E 018°30'7 6.8
2014-Aug-27 16:34N 54°32' E 018°42'1313.5
2014-Aug-27 15:34N 54°45' E 018°50'1818.1
2014-Aug-27 14:34N 54°58' E 018°29'1918.2
2014-Aug-27 13:32N 55°08' E 018°01'7918.2
2014-Aug-27 09:13N 55°51' E 016°05'1217.8
2014-Aug-27 08:33N 55°58' E 015°49'1312.6
2014-Aug-27 07:33N 56°09' E 015°37'4 1.8
2014-Aug-27 05:14N 56°05' E 015°34'9316.3
2014-Aug-26 23:32N 55°13' E 017°51'1616.7
2014-Aug-26 22:33N 55°04' E 018°15'1717.1
2014-Aug-26 21:34N 54°54' E 018°38'1717.0
2014-Aug-26 20:34N 54°41' E 018°58'1514.7
2014-Aug-26 19:33N 54°32' E 018°39'5 5.0
2014-Aug-26 18:32N 54°33' E 018°30'0 0.0
2014-Aug-26 17:32N 54°33' E 018°30'6 6.3
2014-Aug-26 16:34N 54°32' E 018°41'1313.2
2014-Aug-26 15:34N 54°44' E 018°53'1817.5
2014-Aug-26 14:34N 54°56' E 018°31'1717.4
2014-Aug-26 13:33N 55°07' E 018°07'6 0.4
2014-Aug-25 21:29N 55°04' E 018°17'1414.6
2014-Aug-25 20:33N 54°56' E 018°36'1514.5
2014-Aug-25 19:33N 54°45' E 018°52'1211.9
2014-Aug-25 18:33N 54°33' E 018°50'1111.2
2014-Aug-25 17:33N 54°33' E 018°31'0 0.3
2014-Aug-25 16:29N 54°33' E 018°30'0 0.0
2014-Aug-25 15:32N 54°33' E 018°30'0 0.0
2014-Aug-25 14:32N 54°33' E 018°30'0 0.0
2014-Aug-25 13:32N 54°33' E 018°30'0 0.0
2014-Aug-25 12:32N 54°33' E 018°30'0 0.0
2014-Aug-25 11:32N 54°33' E 018°30'0 0.0
2014-Aug-25 10:32N 54°33' E 018°30'0 0.0
2014-Aug-25 09:32N 54°33' E 018°30'0 0.0
2014-Aug-25 08:32N 54°33' E 018°30'0 0.0
2014-Aug-25 07:29N 54°33' E 018°30'1 1.3
2014-Aug-25 06:33N 54°32' E 018°32'1312.8
2014-Aug-25 05:34N 54°36' E 018°53'1413.8
2014-Aug-25 04:34N 54°49' E 018°46'1515.4
2014-Aug-25 03:34N 55°00' E 018°27'1515.2
2014-Aug-25 02:33N 55°08' E 018°05'7815.4
2014-Aug-24 21:32N 55°51' E 016°10'1515.5
2014-Aug-24 20:34N 55°59' E 015°48'1212.0
2014-Aug-24 19:34N 56°09' E 015°37'1 0.7
2014-Aug-24 18:31N 56°10' E 015°38'4 4.3
2014-Aug-24 17:34N 56°06' E 015°35'1514.9
2014-Aug-24 16:34N 55°57' E 015°55'9916.5
2014-Aug-24 10:33N 55°02' E 018°21'1616.5
2014-Aug-24 09:34N 54°51' E 018°42'1615.7
2014-Aug-24 08:34N 54°38' E 018°56'1413.6
2014-Aug-24 07:33N 54°32' E 018°34'2 2.4
2014-Aug-24 06:33N 54°33' E 018°30'0 0.0
2014-Aug-24 05:33N 54°33' E 018°30'7 7.3
2014-Aug-24 04:33N 54°32' E 018°43'1313.4
2014-Aug-24 03:34N 54°45' E 018°51'1717.5
2014-Aug-24 02:34N 54°58' E 018°32'1817.6
2014-Aug-24 01:33N 55°08' E 018°06'7917.8
2014-Aug-23 21:06N 55°51' E 016°10'1017.5
2014-Aug-23 20:33N 55°56' E 015°55'1515.5
2014-Aug-23 19:34N 56°07' E 015°35'142 8.9
2014-Aug-23 03:33N 54°42' E 018°55'1514.6
2014-Aug-23 02:33N 54°53' E 018°39'1414.4
2014-Aug-23 01:33N 55°03' E 018°20'1414.4
2014-Aug-23 00:33N 55°10' E 017°59'1514.4
2014-Aug-22 23:30N 55°19' E 017°37'  

Dump ship's entire track history